createdAt,value
2019-05-05T00:01:52.896Z,61.82
2019-05-05T00:04:54.460Z,62.06
2019-05-05T00:07:31.565Z,62.03
2019-05-05T00:10:00.021Z,61.71
2019-05-05T00:12:59.990Z,61.64
2019-05-05T00:16:04.540Z,61.61
2019-05-05T00:18:34.632Z,62.08
2019-05-05T00:21:04.629Z,62.28
2019-05-05T00:23:34.576Z,62.26
2019-05-05T00:26:04.421Z,62.50
2019-05-05T00:28:32.904Z,62.59
2019-05-05T00:31:01.390Z,62.52
2019-05-05T00:33:29.875Z,62.26
2019-05-05T00:35:58.591Z,62.39
2019-05-05T00:38:27.042Z,62.24
2019-05-05T00:40:55.647Z,62.40
2019-05-05T00:43:25.288Z,62.63
2019-05-05T00:45:56.365Z,62.67
2019-05-05T00:48:35.048Z,62.71
2019-05-05T00:51:04.640Z,62.87
2019-05-05T00:53:34.298Z,63.09
2019-05-05T00:56:04.955Z,63.42
2019-05-05T00:58:35.331Z,63.54
2019-05-05T01:01:28.763Z,63.56
2019-05-05T01:03:57.502Z,63.44
2019-05-05T01:06:28.340Z,63.22
2019-05-05T01:08:56.882Z,63.41
2019-05-05T01:11:25.744Z,63.39
2019-05-05T01:13:54.792Z,63.56
2019-05-05T01:16:24.753Z,63.61
2019-05-05T01:18:55.397Z,63.53
2019-05-05T01:21:24.501Z,63.15
2019-05-05T01:23:54.844Z,63.08
2019-05-05T01:26:24.833Z,63.13
2019-05-05T01:28:53.426Z,63.32
2019-05-05T01:31:22.474Z,63.18
2019-05-05T01:34:04.905Z,63.39
2019-05-05T01:36:34.525Z,63.49
2019-05-05T01:39:34.635Z,63.50
2019-05-05T01:42:09.146Z,63.47
2019-05-05T01:44:37.603Z,63.42
2019-05-05T01:47:06.099Z,63.24
2019-05-05T01:49:34.831Z,63.24
2019-05-05T01:52:04.378Z,63.30
2019-05-05T01:54:35.159Z,63.70
2019-05-05T01:57:05.453Z,63.70
2019-05-05T01:59:35.323Z,63.99
2019-05-05T02:02:04.431Z,63.99
2019-05-05T02:04:34.289Z,63.62
2019-05-05T02:07:05.290Z,63.66
2019-05-05T02:09:35.360Z,63.82
2019-05-05T02:12:05.131Z,64.04
2019-05-05T02:14:35.221Z,64.34
2019-05-05T02:17:05.061Z,64.36
2019-05-05T02:19:35.048Z,64.32
2019-05-05T02:22:05.342Z,64.26
2019-05-05T02:24:35.288Z,64.29
2019-05-05T02:27:05.156Z,64.50
2019-05-05T02:29:55.766Z,64.52
2019-05-05T02:32:45.175Z,64.65
2019-05-05T02:35:16.446Z,64.87
2019-05-05T02:37:46.015Z,64.87
2019-05-05T02:40:15.993Z,64.83
2019-05-05T02:42:45.576Z,64.64
2019-05-05T02:45:35.270Z,64.83
2019-05-05T02:48:11.250Z,64.76
2019-05-05T02:51:02.269Z,64.93
2019-05-05T02:53:34.142Z,64.99
2019-05-05T02:56:04.296Z,65.08
2019-05-05T02:58:33.967Z,65.00
2019-05-05T03:01:09.612Z,64.97
2019-05-05T03:03:38.086Z,64.98
2019-05-05T03:06:06.561Z,65.26
2019-05-05T03:08:35.056Z,65.32
2019-05-05T03:11:03.953Z,65.42
2019-05-05T03:13:33.685Z,65.12
2019-05-05T03:16:16.891Z,65.19
2019-05-05T03:18:45.344Z,65.01
2019-05-05T03:21:14.081Z,64.96
2019-05-05T03:23:44.049Z,65.28
2019-05-05T03:26:14.050Z,65.33
2019-05-05T03:28:46.321Z,65.40
2019-05-05T03:31:15.985Z,65.47
2019-05-05T03:33:45.886Z,65.64
2019-05-05T03:36:14.775Z,65.88
2019-05-05T03:38:44.370Z,65.77
2019-05-05T03:41:20.302Z,65.79
2019-05-05T03:44:04.833Z,65.70
2019-05-05T03:46:34.436Z,65.98
2019-05-05T03:49:04.820Z,65.83
2019-05-05T03:51:34.510Z,65.87
2019-05-05T03:54:04.347Z,65.80
2019-05-05T03:56:34.700Z,65.50
2019-05-05T03:59:04.919Z,65.67
2019-05-05T04:02:03.802Z,65.65
2019-05-05T04:04:35.312Z,65.75
2019-05-05T04:07:04.762Z,65.71
2019-05-05T04:09:34.517Z,65.63
2019-05-05T04:12:04.440Z,65.61
2019-05-05T04:14:34.752Z,65.85
2019-05-05T04:17:24.390Z,65.76
2019-05-05T04:19:54.250Z,65.89
2019-05-05T04:22:23.787Z,65.98
2019-05-05T04:24:54.154Z,65.91
2019-05-05T04:27:23.886Z,65.94
2019-05-05T04:29:54.298Z,65.81
2019-05-05T04:32:24.437Z,65.67
2019-05-05T04:34:54.295Z,65.82
2019-05-05T04:37:23.915Z,66.01
2019-05-05T04:39:53.717Z,65.73
2019-05-05T04:42:24.488Z,65.93
2019-05-05T04:44:53.850Z,65.82
2019-05-05T04:47:27.360Z,65.80
2019-05-05T04:50:04.319Z,65.74
2019-05-05T04:52:34.349Z,66.22
2019-05-05T04:55:03.896Z,65.99
2019-05-05T04:57:32.721Z,65.75
2019-05-05T05:00:01.172Z,65.57
2019-05-05T05:02:53.890Z,65.57
2019-05-05T05:05:26.685Z,65.51
2019-05-05T05:07:58.035Z,65.50
2019-05-05T05:10:25.756Z,65.37
2019-05-05T05:12:54.230Z,65.26
2019-05-05T05:15:23.880Z,65.17
2019-05-05T05:18:08.505Z,65.35
2019-05-05T05:20:37.195Z,64.87
2019-05-05T05:23:05.706Z,65.23
2019-05-05T05:25:34.796Z,65.32
2019-05-05T05:28:04.171Z,65.06
2019-05-05T05:30:34.689Z,64.83
2019-05-05T05:33:04.380Z,65.19
2019-05-05T05:35:33.665Z,64.81
2019-05-05T05:38:04.447Z,64.81
2019-05-05T05:40:39.023Z,64.40
2019-05-05T05:43:10.008Z,64.45
2019-05-05T05:46:00.118Z,64.43
2019-05-05T05:48:34.181Z,64.35
2019-05-05T05:51:06.212Z,64.09
2019-05-05T05:53:35.000Z,63.96
2019-05-05T05:56:04.331Z,63.83
2019-05-05T05:58:33.788Z,63.50
2019-05-05T06:01:04.342Z,63.56
2019-05-05T06:03:33.964Z,63.38
2019-05-05T06:06:04.523Z,63.28
2019-05-05T06:08:34.582Z,63.23
2019-05-05T06:11:04.418Z,63.20
2019-05-05T06:13:33.685Z,62.93
2019-05-05T06:16:04.147Z,62.45
2019-05-05T06:18:34.359Z,62.07
2019-05-05T06:21:04.474Z,61.72
2019-05-05T06:23:34.426Z,61.67
2019-05-05T06:26:06.899Z,61.30
2019-05-05T06:28:34.196Z,61.69
2019-05-05T06:31:04.729Z,61.49
2019-05-05T06:33:34.753Z,61.25
2019-05-05T06:36:03.783Z,61.35
2019-05-05T06:38:34.364Z,61.20
2019-05-05T06:41:24.945Z,60.87
2019-05-05T06:44:11.408Z,61.06
2019-05-05T06:47:04.681Z,60.53
2019-05-05T06:49:34.492Z,60.67
2019-05-05T06:52:04.089Z,60.90
2019-05-05T06:54:34.628Z,61.08
2019-05-05T06:57:04.465Z,60.72
2019-05-05T06:59:34.940Z,60.56
2019-05-05T07:02:04.230Z,60.76
2019-05-05T07:04:33.987Z,60.53
2019-05-05T07:07:02.602Z,60.65
2019-05-05T07:09:33.469Z,60.62
2019-05-05T07:12:01.599Z,60.38
2019-05-05T07:14:30.046Z,60.65
2019-05-05T07:16:58.606Z,59.71
2019-05-05T07:19:27.082Z,59.93
2019-05-05T07:21:55.775Z,58.63
2019-05-05T07:24:24.248Z,59.00
2019-05-05T07:26:54.159Z,58.71
2019-05-05T07:29:23.909Z,58.85
2019-05-05T07:31:54.522Z,58.20
2019-05-05T07:34:24.186Z,57.74
2019-05-05T07:36:54.838Z,57.42
2019-05-05T07:39:23.829Z,58.25
2019-05-05T07:41:54.197Z,58.52
2019-05-05T07:44:29.034Z,58.13
2019-05-05T07:46:54.366Z,58.16
2019-05-05T07:49:24.376Z,57.55
2019-05-05T07:51:54.716Z,56.89
2019-05-05T07:54:23.716Z,57.56
2019-05-05T07:56:53.823Z,55.51
2019-05-05T07:59:23.862Z,57.07
2019-05-05T08:01:54.558Z,56.61
2019-05-05T08:04:24.246Z,57.13
2019-05-05T08:06:53.838Z,57.44
2019-05-05T08:09:24.690Z,56.67
2019-05-05T08:11:54.167Z,56.55
2019-05-05T08:14:24.555Z,56.05
2019-05-05T08:17:14.486Z,56.40
2019-05-05T08:19:46.032Z,56.68
2019-05-05T08:22:14.681Z,56.85
2019-05-05T08:25:05.371Z,56.19
2019-05-05T08:27:53.755Z,56.16
2019-05-05T08:30:33.507Z,56.05
2019-05-05T08:33:01.699Z,56.29
2019-05-05T08:35:30.162Z,56.75
2019-05-05T08:37:59.183Z,53.62
2019-05-05T08:40:27.645Z,56.24
2019-05-05T08:42:56.123Z,56.96
2019-05-05T08:45:26.750Z,57.06
2019-05-05T08:47:54.838Z,57.13
2019-05-05T08:50:26.755Z,57.01
2019-05-05T08:52:53.784Z,57.19
2019-05-05T08:55:24.450Z,56.00
2019-05-05T08:57:54.017Z,56.95
2019-05-05T09:00:24.420Z,57.27
2019-05-05T09:02:54.349Z,57.23
2019-05-05T09:05:23.824Z,57.84
2019-05-05T09:07:54.612Z,57.91
2019-05-05T09:10:23.749Z,58.00
2019-05-05T09:12:54.138Z,58.03
2019-05-05T09:15:24.307Z,58.19
2019-05-05T09:17:54.523Z,58.32
2019-05-05T09:20:24.201Z,58.54
2019-05-05T09:22:53.548Z,58.63
2019-05-05T09:25:38.789Z,58.63
2019-05-05T09:28:25.529Z,58.54
2019-05-05T09:30:54.012Z,58.33
2019-05-05T09:33:24.639Z,58.39
2019-05-05T09:35:54.187Z,58.07
2019-05-05T09:38:23.912Z,57.87
2019-05-05T09:40:54.286Z,57.71
2019-05-05T09:43:24.055Z,57.89
2019-05-05T09:45:54.492Z,57.57
2019-05-05T09:48:24.269Z,57.43
2019-05-05T09:50:54.082Z,56.05
2019-05-05T09:53:23.798Z,56.03
2019-05-05T09:55:54.748Z,56.09
2019-05-05T09:58:24.186Z,55.75
2019-05-05T10:00:54.591Z,55.84
2019-05-05T10:03:23.162Z,55.66
2019-05-05T10:05:53.658Z,53.24
2019-05-05T10:08:23.665Z,55.86
2019-05-05T10:10:52.233Z,56.22
2019-05-05T10:13:21.281Z,56.75
2019-05-05T10:15:50.042Z,57.10
2019-05-05T10:18:18.510Z,57.78
2019-05-05T10:20:46.979Z,58.12
2019-05-05T10:23:15.438Z,58.18
2019-05-05T10:25:47.194Z,58.02
2019-05-05T10:28:15.820Z,57.60
2019-05-05T10:30:44.578Z,56.95
2019-05-05T10:33:14.274Z,56.71
2019-05-05T10:35:43.769Z,56.92
2019-05-05T10:38:14.201Z,56.51
2019-05-05T10:40:44.700Z,56.03
2019-05-05T10:43:14.827Z,56.02
2019-05-05T10:45:44.057Z,55.88
2019-05-05T10:48:14.361Z,56.19
2019-05-05T10:50:44.470Z,55.89
2019-05-05T10:53:13.662Z,54.68
2019-05-05T10:55:42.218Z,55.39
2019-05-05T10:58:10.700Z,55.32
2019-05-05T11:00:56.328Z,55.11
2019-05-05T11:03:24.965Z,55.50
2019-05-05T11:05:53.905Z,55.66
2019-05-05T11:08:24.015Z,55.34
2019-05-05T11:10:52.672Z,51.96
2019-05-05T11:13:21.144Z,54.30
2019-05-05T11:15:49.672Z,54.36
2019-05-05T11:18:18.372Z,52.34
2019-05-05T11:20:46.965Z,53.64
2019-05-05T11:23:15.499Z,53.71
2019-05-05T11:25:44.400Z,53.45
2019-05-05T11:28:12.959Z,53.60
2019-05-05T11:30:42.524Z,53.53
2019-05-05T11:33:28.565Z,53.11
2019-05-05T11:36:04.536Z,53.02
2019-05-05T11:38:33.947Z,52.47
2019-05-05T11:41:04.765Z,52.41
2019-05-05T11:43:33.827Z,52.13
2019-05-05T11:46:02.627Z,52.05
2019-05-05T11:48:31.058Z,50.48
2019-05-05T11:50:59.697Z,50.65
2019-05-05T11:53:28.178Z,51.57
2019-05-05T11:55:56.650Z,51.48
2019-05-05T11:58:25.139Z,51.70
2019-05-05T12:00:54.511Z,51.25
2019-05-05T12:03:23.227Z,51.32
2019-05-05T12:05:51.681Z,49.49
2019-05-05T12:08:20.261Z,49.47
2019-05-05T12:10:55.583Z,49.59
2019-05-05T12:13:24.026Z,49.60
2019-05-05T12:16:13.585Z,49.33
2019-05-05T12:18:44.210Z,48.26
2019-05-05T12:21:13.986Z,49.52
2019-05-05T12:23:44.423Z,49.55
2019-05-05T12:26:31.761Z,49.76
2019-05-05T12:29:25.709Z,49.27
2019-05-05T12:31:54.227Z,49.53
2019-05-05T12:34:23.631Z,47.22
2019-05-05T12:36:53.905Z,49.04
2019-05-05T12:39:22.577Z,48.30
2019-05-05T12:41:51.097Z,48.37
2019-05-05T12:44:25.206Z,48.56
2019-05-05T12:47:23.625Z,48.65
2019-05-05T12:49:52.135Z,46.72
2019-05-05T12:52:22.453Z,48.20
2019-05-05T12:54:50.911Z,47.18
2019-05-05T12:57:19.477Z,48.02
2019-05-05T12:59:47.948Z,47.73
2019-05-05T13:02:16.643Z,47.01
2019-05-05T13:04:45.130Z,47.63
2019-05-05T13:07:14.701Z,47.84
2019-05-05T13:09:44.095Z,48.07
2019-05-05T13:12:14.821Z,48.00
2019-05-05T13:14:43.898Z,47.86
2019-05-05T13:17:14.163Z,47.41
2019-05-05T13:19:52.880Z,47.40
2019-05-05T13:22:39.199Z,47.29
2019-05-05T13:25:27.198Z,46.80
2019-05-05T13:27:57.417Z,46.65
2019-05-05T13:30:26.183Z,46.34
2019-05-05T13:32:54.797Z,45.71
2019-05-05T13:35:23.524Z,43.47
2019-05-05T13:37:52.234Z,45.43
2019-05-05T13:40:20.702Z,46.06
2019-05-05T13:42:49.187Z,45.98
2019-05-05T13:45:39.606Z,45.79
2019-05-05T13:48:08.297Z,46.37
2019-05-05T13:50:39.814Z,45.34
2019-05-05T13:53:08.274Z,44.11
2019-05-05T13:55:36.867Z,44.44
2019-05-05T13:58:08.554Z,44.27
2019-05-05T14:00:36.209Z,43.88
2019-05-05T14:03:04.788Z,43.71
2019-05-05T14:05:34.357Z,43.62
2019-05-05T14:08:04.165Z,43.18
2019-05-05T14:10:32.777Z,43.02
2019-05-05T14:13:03.677Z,42.16
2019-05-05T14:15:33.983Z,41.42
2019-05-05T14:18:03.783Z,42.92
2019-05-05T14:20:34.503Z,42.09
2019-05-05T14:23:03.854Z,42.66
2019-05-05T14:25:32.709Z,41.94
2019-05-05T14:28:03.717Z,43.16
2019-05-05T14:30:57.177Z,43.07
2019-05-05T14:33:31.441Z,40.59
2019-05-05T14:36:18.920Z,42.79
2019-05-05T14:38:53.928Z,41.73
2019-05-05T14:41:22.845Z,41.78
2019-05-05T14:43:53.815Z,41.59
2019-05-05T14:46:23.385Z,38.06
2019-05-05T14:48:53.541Z,40.80
2019-05-05T14:51:21.994Z,40.73
2019-05-05T14:53:50.476Z,41.46
2019-05-05T14:56:19.196Z,41.04
2019-05-05T14:58:47.654Z,40.54
2019-05-05T15:01:16.123Z,41.64
2019-05-05T15:03:44.643Z,40.30
2019-05-05T15:06:18.745Z,42.13
2019-05-05T15:09:09.045Z,42.19
2019-05-05T15:11:50.462Z,42.09
2019-05-05T15:14:18.939Z,42.50
2019-05-05T15:16:47.501Z,42.70
2019-05-05T15:19:16.042Z,42.73
2019-05-05T15:21:44.535Z,42.49
2019-05-05T15:24:13.831Z,39.24
2019-05-05T15:26:49.785Z,41.91
2019-05-05T15:29:12.691Z,42.20
2019-05-05T15:31:41.175Z,42.69
2019-05-05T15:34:09.743Z,42.81
2019-05-05T15:36:38.210Z,43.43
2019-05-05T15:39:08.043Z,43.55
2019-05-05T15:41:36.863Z,43.64
2019-05-05T15:44:05.624Z,43.84
2019-05-05T15:46:34.104Z,43.95
2019-05-05T15:49:04.212Z,44.50
2019-05-05T15:51:34.365Z,44.02
2019-05-05T15:54:03.917Z,44.26
2019-05-05T15:56:34.032Z,44.26
2019-05-05T15:59:02.739Z,44.08
2019-05-05T16:01:31.232Z,44.02
2019-05-05T16:03:59.697Z,43.92
2019-05-05T16:06:28.175Z,43.79
2019-05-05T16:08:56.936Z,43.53
2019-05-05T16:11:26.949Z,43.53
2019-05-05T16:13:55.468Z,43.18
2019-05-05T16:16:55.592Z,42.84
2019-05-05T16:19:50.446Z,42.75
2019-05-05T16:22:26.047Z,42.60
2019-05-05T16:25:14.290Z,42.66
2019-05-05T16:27:44.573Z,42.77
2019-05-05T16:30:14.484Z,42.48
2019-05-05T16:32:43.000Z,42.19
2019-05-05T16:35:11.535Z,42.44
2019-05-05T16:37:40.326Z,42.46
2019-05-05T16:40:09.984Z,42.47
2019-05-05T16:42:38.580Z,42.33
2019-05-05T16:45:07.130Z,42.42
2019-05-05T16:47:35.610Z,42.38
2019-05-05T16:50:04.438Z,41.92
2019-05-05T16:52:37.841Z,41.66
2019-05-05T16:55:14.818Z,41.40
2019-05-05T16:57:43.802Z,41.26
2019-05-05T17:00:12.381Z,41.40
2019-05-05T17:02:40.864Z,41.33
2019-05-05T17:05:09.342Z,41.05
2019-05-05T17:07:37.841Z,38.92
2019-05-05T17:10:06.396Z,41.03
2019-05-05T17:12:34.876Z,41.07
2019-05-05T17:15:24.429Z,41.21
2019-05-05T17:17:58.548Z,41.31
2019-05-05T17:20:28.424Z,41.26
2019-05-05T17:22:59.563Z,41.14
2019-05-05T17:25:28.010Z,41.39
2019-05-05T17:27:56.449Z,41.25
2019-05-05T17:30:27.066Z,40.96
2019-05-05T17:32:55.140Z,40.93
2019-05-05T17:35:24.058Z,41.00
2019-05-05T17:37:53.872Z,40.70
2019-05-05T17:40:50.801Z,41.02
2019-05-05T17:43:34.069Z,40.85
2019-05-05T17:46:08.906Z,41.57
2019-05-05T17:48:44.194Z,42.89
2019-05-05T17:51:23.589Z,45.57
2019-05-05T17:54:00.347Z,45.29
2019-05-05T17:56:28.828Z,46.04
2019-05-05T17:58:57.311Z,45.80
2019-05-05T18:01:26.007Z,46.44
2019-05-05T18:03:54.721Z,47.80
2019-05-05T18:06:45.086Z,46.57
2019-05-05T18:09:19.902Z,49.57
2019-05-05T18:12:04.382Z,47.10
2019-05-05T18:14:33.570Z,47.42
2019-05-05T18:17:04.121Z,47.64
2019-05-05T18:19:34.030Z,47.74
2019-05-05T18:22:02.615Z,48.44
2019-05-05T18:24:31.311Z,48.14
2019-05-05T18:26:59.744Z,47.98
2019-05-05T18:29:28.192Z,47.97
2019-05-05T18:31:56.893Z,48.39
2019-05-05T18:34:25.349Z,48.12
2019-05-05T18:36:54.419Z,48.17
2019-05-05T18:39:24.681Z,48.29
2019-05-05T18:42:14.616Z,48.39
2019-05-05T18:44:45.329Z,48.36
2019-05-05T18:47:18.182Z,49.00
2019-05-05T18:49:46.044Z,49.06
2019-05-05T18:52:14.530Z,49.27
2019-05-05T18:54:43.608Z,49.29
2019-05-05T18:57:12.619Z,49.56
2019-05-05T18:59:41.411Z,49.56
2019-05-05T19:02:19.318Z,49.25
2019-05-05T19:05:09.923Z,49.63
2019-05-05T19:07:54.478Z,49.88
2019-05-05T19:10:12.028Z,49.84
2019-05-05T19:12:40.855Z,49.88
2019-05-05T19:15:09.286Z,50.17
2019-05-05T19:17:38.019Z,50.34
2019-05-05T19:20:14.662Z,50.45
2019-05-05T19:22:43.557Z,50.59
2019-05-05T19:25:17.878Z,50.94
2019-05-05T19:27:46.386Z,51.14
2019-05-05T19:30:14.965Z,51.13
2019-05-05T19:32:43.827Z,51.26
2019-05-05T19:35:12.286Z,51.26
2019-05-05T19:37:40.965Z,51.42
2019-05-05T19:40:09.748Z,51.12
2019-05-05T19:42:38.213Z,50.99
2019-05-05T19:45:06.864Z,51.59
2019-05-05T19:47:35.343Z,52.00
2019-05-05T19:50:18.931Z,51.86
2019-05-05T19:52:47.405Z,53.64
2019-05-05T19:55:15.915Z,52.49
2019-05-05T19:57:44.629Z,52.50
2019-05-05T20:00:14.585Z,52.72
2019-05-05T20:02:43.869Z,52.30
2019-05-05T20:05:13.768Z,52.73
2019-05-05T20:07:43.919Z,52.57
2019-05-05T20:10:14.546Z,52.96
2019-05-05T20:12:44.831Z,54.33
2019-05-05T20:15:18.336Z,55.26
2019-05-05T20:17:46.828Z,53.90
2019-05-05T20:20:16.750Z,54.47
2019-05-05T20:22:45.462Z,54.36
2019-05-05T20:25:14.183Z,54.15
2019-05-05T20:27:42.935Z,54.17
2019-05-05T20:30:11.412Z,54.44
2019-05-05T20:32:45.814Z,54.14
2019-05-05T20:35:20.265Z,54.21
2019-05-05T20:37:54.171Z,54.64
2019-05-05T20:40:25.297Z,54.20
2019-05-05T20:42:54.261Z,54.39
2019-05-05T20:45:25.908Z,54.95
2019-05-05T20:47:54.382Z,54.75
2019-05-05T20:50:24.718Z,55.26
2019-05-05T20:52:53.662Z,54.72
2019-05-05T20:55:22.170Z,54.35
2019-05-05T20:57:50.614Z,54.63
2019-05-05T21:00:19.077Z,54.61
2019-05-05T21:02:47.548Z,54.98
2019-05-05T21:05:16.030Z,54.99
2019-05-05T21:07:44.510Z,55.33
2019-05-05T21:10:14.371Z,55.30
2019-05-05T21:12:45.425Z,55.59
2019-05-05T21:15:13.461Z,55.28
2019-05-05T21:17:41.950Z,55.29
2019-05-05T21:20:10.888Z,55.25
2019-05-05T21:22:53.910Z,55.16
2019-05-05T21:25:24.833Z,55.16
2019-05-05T21:27:53.373Z,55.23
2019-05-05T21:30:23.725Z,54.82
2019-05-05T21:32:54.468Z,54.88
2019-05-05T21:35:24.036Z,55.17
2019-05-05T21:37:54.305Z,54.93
2019-05-05T21:40:25.036Z,54.79
2019-05-05T21:42:54.291Z,55.10
2019-05-05T21:45:22.859Z,55.07
2019-05-05T21:47:51.313Z,55.40
2019-05-05T21:50:24.590Z,55.30
2019-05-05T21:53:04.580Z,55.66
2019-05-05T21:55:41.201Z,55.53
2019-05-05T21:58:15.425Z,55.54
2019-05-05T22:01:04.192Z,55.98
2019-05-05T22:03:35.186Z,55.56
2019-05-05T22:06:03.827Z,56.00
2019-05-05T22:08:33.679Z,55.82
2019-05-05T22:11:03.963Z,56.21
2019-05-05T22:13:36.206Z,56.03
2019-05-05T22:16:04.067Z,56.14
2019-05-05T22:18:32.746Z,56.57
2019-05-05T22:21:06.377Z,57.58
2019-05-05T22:23:36.815Z,57.31
2019-05-05T22:26:05.298Z,57.94
2019-05-05T22:28:34.245Z,57.93
2019-05-05T22:31:04.688Z,58.05
2019-05-05T22:33:34.000Z,58.25
2019-05-05T22:36:06.730Z,58.92
2019-05-05T22:38:33.966Z,58.17
2019-05-05T22:41:02.621Z,58.55
2019-05-05T22:43:31.104Z,58.51
2019-05-05T22:45:59.918Z,58.70
2019-05-05T22:48:28.373Z,58.29
2019-05-05T22:50:56.824Z,58.28
2019-05-05T22:53:25.273Z,58.41
2019-05-05T22:55:54.044Z,57.83
2019-05-05T22:58:24.051Z,58.40
2019-05-05T23:00:54.672Z,58.31
2019-05-05T23:03:38.022Z,58.19
2019-05-05T23:06:09.928Z,58.11
2019-05-05T23:08:38.615Z,58.58
2019-05-05T23:11:07.069Z,58.38
2019-05-05T23:13:35.573Z,58.55
2019-05-05T23:16:19.953Z,58.65
2019-05-05T23:18:48.424Z,59.32
2019-05-05T23:21:29.737Z,59.25
2019-05-05T23:24:19.843Z,59.00
2019-05-05T23:26:49.393Z,59.08
2019-05-05T23:29:18.096Z,59.39
2019-05-05T23:31:46.561Z,59.35
2019-05-05T23:34:15.022Z,59.94
2019-05-05T23:36:44.302Z,59.79
2019-05-05T23:39:13.564Z,59.90
2019-05-05T23:41:42.314Z,60.20
2019-05-05T23:44:10.777Z,60.13
2019-05-05T23:46:39.229Z,59.90
2019-05-05T23:49:07.691Z,60.21
2019-05-05T23:51:36.142Z,60.08
2019-05-05T23:54:04.622Z,59.93
2019-05-05T23:56:34.996Z,60.58
2019-05-05T23:59:04.231Z,60.33
